sensor_id;sensor_type;location;lat;lon;timestamp;P1;durP1;ratioP1;P2;durP2;ratioP2
32236;SDS011;18726;44.732;10.550;2023-06-19T00:00:30;11.07;;;9.90;;
32236;SDS011;18726;44.732;10.550;2023-06-19T00:03:35;13.20;;;10.57;;
32236;SDS011;18726;44.732;10.550;2023-06-19T00:06:38;12.27;;;10.02;;
32236;SDS011;18726;44.732;10.550;2023-06-19T00:09:41;10.75;;;9.65;;
32236;SDS011;18726;44.732;10.550;2023-06-19T00:12:45;12.30;;;10.02;;
32236;SDS011;18726;44.732;10.550;2023-06-19T00:15:49;11.15;;;9.65;;
32236;SDS011;18726;44.732;10.550;2023-06-19T00:18:53;12.65;;;10.45;;
32236;SDS011;18726;44.732;10.550;2023-06-19T00:21:58;11.63;;;10.45;;
32236;SDS011;18726;44.732;10.550;2023-06-19T00:25:03;11.48;;;10.05;;
32236;SDS011;18726;44.732;10.550;2023-06-19T00:28:07;10.25;;;9.25;;
32236;SDS011;18726;44.732;10.550;2023-06-19T00:31:14;13.15;;;10.43;;
32236;SDS011;18726;44.732;10.550;2023-06-19T00:34:19;11.32;;;10.10;;
32236;SDS011;18726;44.732;10.550;2023-06-19T00:37:23;12.23;;;10.13;;
32236;SDS011;18726;44.732;10.550;2023-06-19T00:40:27;11.68;;;10.20;;
32236;SDS011;18726;44.732;10.550;2023-06-19T00:43:35;12.48;;;11.27;;
32236;SDS011;18726;44.732;10.550;2023-06-19T00:46:39;10.38;;;9.27;;
32236;SDS011;18726;44.732;10.550;2023-06-19T00:49:43;13.07;;;10.68;;
32236;SDS011;18726;44.732;10.550;2023-06-19T00:52:47;15.48;;;10.52;;
32236;SDS011;18726;44.732;10.550;2023-06-19T00:55:51;10.73;;;9.73;;
32236;SDS011;18726;44.732;10.550;2023-06-19T00:58:56;10.90;;;9.90;;
32236;SDS011;18726;44.732;10.550;2023-06-19T01:02:00;15.45;;;10.10;;
32236;SDS011;18726;44.732;10.550;2023-06-19T01:05:05;12.10;;;10.10;;
32236;SDS011;18726;44.732;10.550;2023-06-19T01:11:22;10.80;;;9.70;;
32236;SDS011;18726;44.732;10.550;2023-06-19T01:14:30;11.25;;;10.15;;
32236;SDS011;18726;44.732;10.550;2023-06-19T01:17:38;11.93;;;10.82;;
32236;SDS011;18726;44.732;10.550;2023-06-19T01:20:43;12.70;;;11.32;;
32236;SDS011;18726;44.732;10.550;2023-06-19T01:23:47;14.05;;;11.88;;
32236;SDS011;18726;44.732;10.550;2023-06-19T01:26:50;15.30;;;11.23;;
32236;SDS011;18726;44.732;10.550;2023-06-19T01:29:58;10.98;;;9.80;;
32236;SDS011;18726;44.732;10.550;2023-06-19T01:33:08;12.18;;;9.95;;
32236;SDS011;18726;44.732;10.550;2023-06-19T01:36:16;19.90;;;11.13;;
32236;SDS011;18726;44.732;10.550;2023-06-19T01:39:22;13.20;;;11.48;;
32236;SDS011;18726;44.732;10.550;2023-06-19T01:42:26;17.63;;;11.57;;
32236;SDS011;18726;44.732;10.550;2023-06-19T01:45:30;13.13;;;10.20;;
32236;SDS011;18726;44.732;10.550;2023-06-19T01:48:38;12.60;;;10.95;;
32236;SDS011;18726;44.732;10.550;2023-06-19T01:51:43;13.93;;;11.20;;
32236;SDS011;18726;44.732;10.550;2023-06-19T01:54:48;11.32;;;10.23;;
32236;SDS011;18726;44.732;10.550;2023-06-19T01:57:51;14.23;;;11.13;;
32236;SDS011;18726;44.732;10.550;2023-06-19T02:00:55;12.85;;;10.35;;
32236;SDS011;18726;44.732;10.550;2023-06-19T02:03:59;13.43;;;10.52;;
32236;SDS011;18726;44.732;10.550;2023-06-19T02:07:03;15.07;;;10.55;;
32236;SDS011;18726;44.732;10.550;2023-06-19T02:10:07;13.55;;;9.98;;
32236;SDS011;18726;44.732;10.550;2023-06-19T02:13:12;15.80;;;10.95;;
32236;SDS011;18726;44.732;10.550;2023-06-19T02:16:15;13.35;;;11.43;;
32236;SDS011;18726;44.732;10.550;2023-06-19T02:19:18;13.13;;;11.60;;
32236;SDS011;18726;44.732;10.550;2023-06-19T02:22:23;12.05;;;10.85;;
32236;SDS011;18726;44.732;10.550;2023-06-19T02:25:27;13.15;;;11.70;;
32236;SDS011;18726;44.732;10.550;2023-06-19T02:28:30;10.90;;;9.82;;
32236;SDS011;18726;44.732;10.550;2023-06-19T02:31:34;12.80;;;11.23;;
32236;SDS011;18726;44.732;10.550;2023-06-19T02:34:37;12.27;;;10.88;;
32236;SDS011;18726;44.732;10.550;2023-06-19T02:37:42;13.25;;;11.02;;
32236;SDS011;18726;44.732;10.550;2023-06-19T02:40:45;11.18;;;10.07;;
32236;SDS011;18726;44.732;10.550;2023-06-19T02:43:49;13.13;;;10.55;;
32236;SDS011;18726;44.732;10.550;2023-06-19T02:46:53;13.23;;;10.45;;
32236;SDS011;18726;44.732;10.550;2023-06-19T02:49:57;16.45;;;9.73;;
32236;SDS011;18726;44.732;10.550;2023-06-19T02:53:05;11.60;;;10.40;;
32236;SDS011;18726;44.732;10.550;2023-06-19T02:56:09;14.82;;;10.48;;
32236;SDS011;18726;44.732;10.550;2023-06-19T02:59:15;11.30;;;10.18;;
32236;SDS011;18726;44.732;10.550;2023-06-19T03:02:18;12.18;;;10.25;;
32236;SDS011;18726;44.732;10.550;2023-06-19T03:05:22;10.85;;;9.52;;
32236;SDS011;18726;44.732;10.550;2023-06-19T03:08:26;11.52;;;10.35;;
32236;SDS011;18726;44.732;10.550;2023-06-19T03:11:30;10.57;;;9.50;;
32236;SDS011;18726;44.732;10.550;2023-06-19T03:14:34;12.27;;;10.07;;
32236;SDS011;18726;44.732;10.550;2023-06-19T03:17:37;13.32;;;10.88;;
32236;SDS011;18726;44.732;10.550;2023-06-19T03:20:44;14.15;;;10.70;;
32236;SDS011;18726;44.732;10.550;2023-06-19T03:23:49;14.07;;;10.13;;
32236;SDS011;18726;44.732;10.550;2023-06-19T03:26:53;12.25;;;10.68;;
32236;SDS011;18726;44.732;10.550;2023-06-19T03:29:57;15.10;;;11.30;;
32236;SDS011;18726;44.732;10.550;2023-06-19T03:33:11;14.43;;;10.70;;
32236;SDS011;18726;44.732;10.550;2023-06-19T03:36:20;12.27;;;10.55;;
32236;SDS011;18726;44.732;10.550;2023-06-19T03:39:28;12.82;;;10.68;;
32236;SDS011;18726;44.732;10.550;2023-06-19T03:42:40;12.07;;;10.82;;
32236;SDS011;18726;44.732;10.550;2023-06-19T03:45:44;12.88;;;11.02;;
32236;SDS011;18726;44.732;10.550;2023-06-19T03:48:48;15.07;;;11.23;;
32236;SDS011;18726;44.732;10.550;2023-06-19T03:51:51;12.73;;;11.00;;
32236;SDS011;18726;44.732;10.550;2023-06-19T03:54:55;12.82;;;10.40;;
32236;SDS011;18726;44.732;10.550;2023-06-19T03:57:59;16.15;;;10.95;;
32236;SDS011;18726;44.732;10.550;2023-06-19T04:01:03;13.05;;;10.90;;
32236;SDS011;18726;44.732;10.550;2023-06-19T04:04:09;14.70;;;11.38;;
32236;SDS011;18726;44.732;10.550;2023-06-19T04:07:12;12.25;;;11.05;;
32236;SDS011;18726;44.732;10.550;2023-06-19T04:10:18;12.93;;;11.75;;
32236;SDS011;18726;44.732;10.550;2023-06-19T04:13:22;17.48;;;12.52;;
32236;SDS011;18726;44.732;10.550;2023-06-19T04:16:29;13.70;;;11.38;;
32236;SDS011;18726;44.732;10.550;2023-06-19T04:19:34;13.85;;;11.73;;
32236;SDS011;18726;44.732;10.550;2023-06-19T04:22:39;16.48;;;12.95;;
32236;SDS011;18726;44.732;10.550;2023-06-19T04:25:43;11.73;;;9.02;;
32236;SDS011;18726;44.732;10.550;2023-06-19T04:28:48;8.43;;;7.63;;
32236;SDS011;18726;44.732;10.550;2023-06-19T04:31:51;11.23;;;10.10;;
32236;SDS011;18726;44.732;10.550;2023-06-19T04:34:56;11.63;;;10.43;;
32236;SDS011;18726;44.732;10.550;2023-06-19T04:38:01;13.15;;;10.75;;
32236;SDS011;18726;44.732;10.550;2023-06-19T04:41:04;12.10;;;10.90;;
32236;SDS011;18726;44.732;10.550;2023-06-19T04:44:08;11.00;;;9.82;;
32236;SDS011;18726;44.732;10.550;2023-06-19T04:47:12;17.00;;;11.98;;
32236;SDS011;18726;44.732;10.550;2023-06-19T04:50:17;14.15;;;11.35;;
32236;SDS011;18726;44.732;10.550;2023-06-19T04:53:21;21.52;;;11.75;;
32236;SDS011;18726;44.732;10.550;2023-06-19T04:56:25;12.70;;;11.38;;
32236;SDS011;18726;44.732;10.550;2023-06-19T04:59:29;11.57;;;10.32;;
32236;SDS011;18726;44.732;10.550;2023-06-19T05:02:34;10.27;;;8.30;;
32236;SDS011;18726;44.732;10.550;2023-06-19T05:05:38;37.53;;;11.98;;
32236;SDS011;18726;44.732;10.550;2023-06-19T05:08:41;12.27;;;11.07;;
32236;SDS011;18726;44.732;10.550;2023-06-19T05:11:44;12.55;;;11.07;;
32236;SDS011;18726;44.732;10.550;2023-06-19T05:14:48;13.15;;;11.90;;
32236;SDS011;18726;44.732;10.550;2023-06-19T05:17:52;11.07;;;9.50;;
32236;SDS011;18726;44.732;10.550;2023-06-19T05:20:55;9.93;;;8.85;;
32236;SDS011;18726;44.732;10.550;2023-06-19T05:23:59;12.82;;;9.68;;
32236;SDS011;18726;44.732;10.550;2023-06-19T05:27:03;15.90;;;11.07;;
32236;SDS011;18726;44.732;10.550;2023-06-19T05:30:07;19.92;;;11.60;;
32236;SDS011;18726;44.732;10.550;2023-06-19T05:33:12;10.85;;;9.57;;
32236;SDS011;18726;44.732;10.550;2023-06-19T05:36:19;9.93;;;8.73;;
32236;SDS011;18726;44.732;10.550;2023-06-19T05:39:22;10.88;;;9.02;;
32236;SDS011;18726;44.732;10.550;2023-06-19T05:42:26;17.40;;;10.98;;
32236;SDS011;18726;44.732;10.550;2023-06-19T05:45:30;8.55;;;7.65;;
32236;SDS011;18726;44.732;10.550;2023-06-19T05:48:33;9.45;;;8.52;;
32236;SDS011;18726;44.732;10.550;2023-06-19T05:51:37;13.15;;;10.85;;
32236;SDS011;18726;44.732;10.550;2023-06-19T05:54:41;15.48;;;11.93;;
32236;SDS011;18726;44.732;10.550;2023-06-19T05:57:44;15.95;;;10.75;;
32236;SDS011;18726;44.732;10.550;2023-06-19T06:00:48;21.58;;;11.98;;
32236;SDS011;18726;44.732;10.550;2023-06-19T06:03:52;13.93;;;11.45;;
32236;SDS011;18726;44.732;10.550;2023-06-19T06:06:57;13.90;;;12.25;;
32236;SDS011;18726;44.732;10.550;2023-06-19T06:10:00;13.35;;;12.02;;
32236;SDS011;18726;44.732;10.550;2023-06-19T06:13:04;18.52;;;10.32;;
32236;SDS011;18726;44.732;10.550;2023-06-19T06:16:08;17.92;;;11.98;;
32236;SDS011;18726;44.732;10.550;2023-06-19T06:19:12;23.08;;;12.35;;
32236;SDS011;18726;44.732;10.550;2023-06-19T06:22:15;15.52;;;13.93;;
32236;SDS011;18726;44.732;10.550;2023-06-19T06:25:18;19.10;;;17.10;;
32236;SDS011;18726;44.732;10.550;2023-06-19T06:28:23;19.08;;;15.98;;
32236;SDS011;18726;44.732;10.550;2023-06-19T06:31:26;16.42;;;14.52;;
32236;SDS011;18726;44.732;10.550;2023-06-19T06:34:30;21.05;;;17.90;;
32236;SDS011;18726;44.732;10.550;2023-06-19T06:37:35;25.75;;;17.48;;
32236;SDS011;18726;44.732;10.550;2023-06-19T06:40:39;24.73;;;16.60;;
32236;SDS011;18726;44.732;10.550;2023-06-19T06:43:44;22.17;;;15.43;;
32236;SDS011;18726;44.732;10.550;2023-06-19T06:46:48;17.73;;;14.50;;
32236;SDS011;18726;44.732;10.550;2023-06-19T06:49:51;17.10;;;14.20;;
32236;SDS011;18726;44.732;10.550;2023-06-19T06:52:55;23.58;;;15.40;;
32236;SDS011;18726;44.732;10.550;2023-06-19T06:55:58;23.65;;;15.05;;
32236;SDS011;18726;44.732;10.550;2023-06-19T06:59:06;13.68;;;12.18;;
32236;SDS011;18726;44.732;10.550;2023-06-19T07:02:10;14.35;;;12.13;;
32236;SDS011;18726;44.732;10.550;2023-06-19T07:05:14;14.05;;;10.82;;
32236;SDS011;18726;44.732;10.550;2023-06-19T07:08:17;14.32;;;7.93;;
32236;SDS011;18726;44.732;10.550;2023-06-19T07:11:20;18.55;;;9.30;;
32236;SDS011;18726;44.732;10.550;2023-06-19T07:14:24;7.18;;;6.38;;
32236;SDS011;18726;44.732;10.550;2023-06-19T07:17:27;9.30;;;7.32;;
32236;SDS011;18726;44.732;10.550;2023-06-19T07:20:31;7.25;;;6.25;;
32236;SDS011;18726;44.732;10.550;2023-06-19T07:23:34;7.07;;;6.38;;
32236;SDS011;18726;44.732;10.550;2023-06-19T07:26:38;9.98;;;5.60;;
32236;SDS011;18726;44.732;10.550;2023-06-19T07:29:43;10.07;;;6.22;;
32236;SDS011;18726;44.732;10.550;2023-06-19T07:32:47;8.10;;;5.78;;
32236;SDS011;18726;44.732;10.550;2023-06-19T07:35:51;5.18;;;4.68;;
32236;SDS011;18726;44.732;10.550;2023-06-19T07:38:55;6.78;;;4.95;;
32236;SDS011;18726;44.732;10.550;2023-06-19T07:41:58;5.65;;;5.05;;
32236;SDS011;18726;44.732;10.550;2023-06-19T07:45:02;7.03;;;6.30;;
32236;SDS011;18726;44.732;10.550;2023-06-19T07:48:06;7.97;;;6.03;;
32236;SDS011;18726;44.732;10.550;2023-06-19T07:51:10;6.13;;;5.22;;
32236;SDS011;18726;44.732;10.550;2023-06-19T07:54:14;6.78;;;6.10;;
32236;SDS011;18726;44.732;10.550;2023-06-19T07:57:17;7.53;;;6.35;;
32236;SDS011;18726;44.732;10.550;2023-06-19T08:00:21;7.00;;;6.22;;
32236;SDS011;18726;44.732;10.550;2023-06-19T08:03:25;6.60;;;5.32;;
32236;SDS011;18726;44.732;10.550;2023-06-19T08:06:29;7.60;;;5.63;;
32236;SDS011;18726;44.732;10.550;2023-06-19T08:09:33;8.38;;;5.97;;
32236;SDS011;18726;44.732;10.550;2023-06-19T08:12:37;6.00;;;5.22;;
32236;SDS011;18726;44.732;10.550;2023-06-19T08:15:41;12.77;;;6.22;;
32236;SDS011;18726;44.732;10.550;2023-06-19T08:18:46;5.55;;;5.03;;
32236;SDS011;18726;44.732;10.550;2023-06-19T08:21:50;6.15;;;5.20;;
32236;SDS011;18726;44.732;10.550;2023-06-19T08:24:53;6.03;;;5.43;;
32236;SDS011;18726;44.732;10.550;2023-06-19T08:27:57;6.35;;;5.18;;
32236;SDS011;18726;44.732;10.550;2023-06-19T08:31:01;8.32;;;5.53;;
32236;SDS011;18726;44.732;10.550;2023-06-19T08:34:05;5.63;;;5.07;;
32236;SDS011;18726;44.732;10.550;2023-06-19T08:37:12;6.60;;;5.45;;
32236;SDS011;18726;44.732;10.550;2023-06-19T08:40:15;5.45;;;4.95;;
32236;SDS011;18726;44.732;10.550;2023-06-19T08:43:19;8.07;;;5.72;;
32236;SDS011;18726;44.732;10.550;2023-06-19T08:46:23;6.45;;;5.85;;
32236;SDS011;18726;44.732;10.550;2023-06-19T08:49:35;8.52;;;5.90;;
32236;SDS011;18726;44.732;10.550;2023-06-19T08:52:39;6.65;;;5.90;;
32236;SDS011;18726;44.732;10.550;2023-06-19T08:55:43;6.75;;;5.32;;
32236;SDS011;18726;44.732;10.550;2023-06-19T08:58:47;6.10;;;5.50;;
32236;SDS011;18726;44.732;10.550;2023-06-19T09:01:52;8.80;;;5.82;;
32236;SDS011;18726;44.732;10.550;2023-06-19T09:05:11;7.07;;;6.38;;
32236;SDS011;18726;44.732;10.550;2023-06-19T09:08:20;7.00;;;6.30;;
32236;SDS011;18726;44.732;10.550;2023-06-19T09:11:28;7.20;;;6.50;;
32236;SDS011;18726;44.732;10.550;2023-06-19T09:14:38;6.13;;;5.57;;
32236;SDS011;18726;44.732;10.550;2023-06-19T09:17:43;6.82;;;6.13;;
32236;SDS011;18726;44.732;10.550;2023-06-19T09:20:56;11.10;;;6.47;;
32236;SDS011;18726;44.732;10.550;2023-06-19T09:24:10;9.10;;;6.80;;
32236;SDS011;18726;44.732;10.550;2023-06-19T09:27:15;9.82;;;5.65;;
32236;SDS011;18726;44.732;10.550;2023-06-19T09:30:23;5.88;;;5.38;;
32236;SDS011;18726;44.732;10.550;2023-06-19T09:33:31;6.20;;;5.70;;
32236;SDS011;18726;44.732;10.550;2023-06-19T09:36:35;6.28;;;5.68;;
32236;SDS011;18726;44.732;10.550;2023-06-19T09:39:40;11.80;;;6.28;;
32236;SDS011;18726;44.732;10.550;2023-06-19T09:42:46;7.45;;;6.75;;
32236;SDS011;18726;44.732;10.550;2023-06-19T09:46:02;7.43;;;6.72;;
32236;SDS011;18726;44.732;10.550;2023-06-19T09:49:06;6.95;;;6.25;;
32236;SDS011;18726;44.732;10.550;2023-06-19T09:52:10;11.23;;;6.03;;
32236;SDS011;18726;44.732;10.550;2023-06-19T09:55:14;7.13;;;6.22;;
32236;SDS011;18726;44.732;10.550;2023-06-19T09:58:19;8.35;;;7.55;;
32236;SDS011;18726;44.732;10.550;2023-06-19T10:01:24;7.22;;;6.35;;
32236;SDS011;18726;44.732;10.550;2023-06-19T10:04:29;7.63;;;6.63;;
32236;SDS011;18726;44.732;10.550;2023-06-19T10:07:33;8.48;;;6.78;;
32236;SDS011;18726;44.732;10.550;2023-06-19T10:10:45;8.00;;;6.38;;
32236;SDS011;18726;44.732;10.550;2023-06-19T10:13:51;8.65;;;6.55;;
32236;SDS011;18726;44.732;10.550;2023-06-19T10:16:54;6.57;;;5.95;;
32236;SDS011;18726;44.732;10.550;2023-06-19T10:19:58;6.97;;;6.28;;
32236;SDS011;18726;44.732;10.550;2023-06-19T10:23:03;8.38;;;6.75;;
32236;SDS011;18726;44.732;10.550;2023-06-19T10:26:15;11.48;;;5.78;;
32236;SDS011;18726;44.732;10.550;2023-06-19T10:29:19;9.90;;;6.20;;
32236;SDS011;18726;44.732;10.550;2023-06-19T10:32:22;9.63;;;5.75;;
32236;SDS011;18726;44.732;10.550;2023-06-19T10:35:26;7.70;;;6.68;;
32236;SDS011;18726;44.732;10.550;2023-06-19T10:38:30;7.78;;;6.03;;
32236;SDS011;18726;44.732;10.550;2023-06-19T10:41:34;6.88;;;6.18;;
32236;SDS011;18726;44.732;10.550;2023-06-19T10:44:37;15.05;;;6.13;;
32236;SDS011;18726;44.732;10.550;2023-06-19T10:47:41;7.78;;;7.03;;
32236;SDS011;18726;44.732;10.550;2023-06-19T10:50:45;10.98;;;6.70;;
32236;SDS011;18726;44.732;10.550;2023-06-19T10:53:49;8.05;;;7.25;;
32236;SDS011;18726;44.732;10.550;2023-06-19T10:56:52;7.32;;;6.25;;
32236;SDS011;18726;44.732;10.550;2023-06-19T10:59:57;7.35;;;6.20;;
32236;SDS011;18726;44.732;10.550;2023-06-19T11:03:01;6.68;;;6.05;;
32236;SDS011;18726;44.732;10.550;2023-06-19T11:06:05;7.05;;;6.18;;
32236;SDS011;18726;44.732;10.550;2023-06-19T11:09:10;8.18;;;7.38;;
32236;SDS011;18726;44.732;10.550;2023-06-19T11:12:20;7.93;;;6.60;;
32236;SDS011;18726;44.732;10.550;2023-06-19T11:15:28;9.20;;;7.05;;
32236;SDS011;18726;44.732;10.550;2023-06-19T11:18:35;10.88;;;6.82;;
32236;SDS011;18726;44.732;10.550;2023-06-19T11:21:39;10.65;;;7.20;;
32236;SDS011;18726;44.732;10.550;2023-06-19T11:24:44;7.65;;;6.53;;
32236;SDS011;18726;44.732;10.550;2023-06-19T11:27:51;6.93;;;6.32;;
32236;SDS011;18726;44.732;10.550;2023-06-19T11:30:58;7.47;;;6.43;;
32236;SDS011;18726;44.732;10.550;2023-06-19T11:34:03;7.35;;;6.65;;
32236;SDS011;18726;44.732;10.550;2023-06-19T11:37:16;8.50;;;6.85;;
32236;SDS011;18726;44.732;10.550;2023-06-19T11:40:27;6.60;;;5.97;;
32236;SDS011;18726;44.732;10.550;2023-06-19T11:43:34;13.13;;;7.50;;
32236;SDS011;18726;44.732;10.550;2023-06-19T11:46:38;7.68;;;6.90;;
32236;SDS011;18726;44.732;10.550;2023-06-19T11:49:42;9.93;;;6.70;;
32236;SDS011;18726;44.732;10.550;2023-06-19T11:52:46;9.02;;;7.57;;
32236;SDS011;18726;44.732;10.550;2023-06-19T11:55:50;8.55;;;7.53;;
32236;SDS011;18726;44.732;10.550;2023-06-19T11:58:54;7.75;;;7.00;;
32236;SDS011;18726;44.732;10.550;2023-06-19T12:01:58;8.52;;;7.53;;
32236;SDS011;18726;44.732;10.550;2023-06-19T12:05:02;8.30;;;7.50;;
32236;SDS011;18726;44.732;10.550;2023-06-19T12:08:06;7.45;;;6.55;;
32236;SDS011;18726;44.732;10.550;2023-06-19T12:11:10;9.48;;;6.95;;
32236;SDS011;18726;44.732;10.550;2023-06-19T12:14:14;8.90;;;7.38;;
32236;SDS011;18726;44.732;10.550;2023-06-19T12:17:17;11.57;;;7.20;;
32236;SDS011;18726;44.732;10.550;2023-06-19T12:20:21;7.13;;;5.72;;
32236;SDS011;18726;44.732;10.550;2023-06-19T12:23:25;7.00;;;6.40;;
32236;SDS011;18726;44.732;10.550;2023-06-19T12:26:28;8.68;;;6.78;;
32236;SDS011;18726;44.732;10.550;2023-06-19T12:29:32;14.65;;;8.02;;
32236;SDS011;18726;44.732;10.550;2023-06-19T12:32:35;7.22;;;6.53;;
32236;SDS011;18726;44.732;10.550;2023-06-19T12:35:41;9.73;;;7.15;;
32236;SDS011;18726;44.732;10.550;2023-06-19T12:38:45;7.65;;;6.85;;
32236;SDS011;18726;44.732;10.550;2023-06-19T12:41:51;9.13;;;7.38;;
32236;SDS011;18726;44.732;10.550;2023-06-19T12:44:55;10.85;;;8.95;;
32236;SDS011;18726;44.732;10.550;2023-06-19T12:47:59;8.73;;;7.93;;
32236;SDS011;18726;44.732;10.550;2023-06-19T12:51:04;11.98;;;7.25;;
32236;SDS011;18726;44.732;10.550;2023-06-19T12:54:07;9.60;;;6.50;;
32236;SDS011;18726;44.732;10.550;2023-06-19T12:57:11;7.05;;;6.35;;
32236;SDS011;18726;44.732;10.550;2023-06-19T13:00:15;7.78;;;7.03;;
32236;SDS011;18726;44.732;10.550;2023-06-19T13:03:19;9.93;;;6.82;;
32236;SDS011;18726;44.732;10.550;2023-06-19T13:06:22;9.25;;;6.47;;
32236;SDS011;18726;44.732;10.550;2023-06-19T13:09:26;8.60;;;6.68;;
32236;SDS011;18726;44.732;10.550;2023-06-19T13:12:29;6.80;;;6.18;;
32236;SDS011;18726;44.732;10.550;2023-06-19T13:15:33;7.88;;;6.35;;
32236;SDS011;18726;44.732;10.550;2023-06-19T13:18:37;8.57;;;7.03;;
32236;SDS011;18726;44.732;10.550;2023-06-19T13:21:40;9.60;;;8.05;;
32236;SDS011;18726;44.732;10.550;2023-06-19T13:24:45;10.15;;;7.75;;
32236;SDS011;18726;44.732;10.550;2023-06-19T13:27:49;9.18;;;8.27;;
32236;SDS011;18726;44.732;10.550;2023-06-19T13:30:52;8.88;;;7.97;;
32236;SDS011;18726;44.732;10.550;2023-06-19T13:33:56;10.75;;;7.97;;
32236;SDS011;18726;44.732;10.550;2023-06-19T13:37:00;9.48;;;8.57;;
32236;SDS011;18726;44.732;10.550;2023-06-19T13:40:06;8.18;;;7.47;;
32236;SDS011;18726;44.732;10.550;2023-06-19T13:43:11;8.30;;;7.50;;
32236;SDS011;18726;44.732;10.550;2023-06-19T13:46:15;8.57;;;7.78;;
32236;SDS011;18726;44.732;10.550;2023-06-19T13:49:19;9.88;;;7.80;;
32236;SDS011;18726;44.732;10.550;2023-06-19T13:52:23;9.45;;;8.50;;
32236;SDS011;18726;44.732;10.550;2023-06-19T13:55:27;8.77;;;7.18;;
32236;SDS011;18726;44.732;10.550;2023-06-19T13:58:31;8.93;;;7.93;;
32236;SDS011;18726;44.732;10.550;2023-06-19T14:01:34;9.50;;;7.53;;
32236;SDS011;18726;44.732;10.550;2023-06-19T14:04:38;9.27;;;7.50;;
32236;SDS011;18726;44.732;10.550;2023-06-19T14:07:42;8.15;;;7.35;;
32236;SDS011;18726;44.732;10.550;2023-06-19T14:10:46;10.38;;;7.57;;
32236;SDS011;18726;44.732;10.550;2023-06-19T14:13:50;9.57;;;7.63;;
32236;SDS011;18726;44.732;10.550;2023-06-19T14:16:54;8.68;;;7.78;;
32236;SDS011;18726;44.732;10.550;2023-06-19T14:19:58;8.20;;;7.10;;
32236;SDS011;18726;44.732;10.550;2023-06-19T14:23:01;12.43;;;7.75;;
32236;SDS011;18726;44.732;10.550;2023-06-19T14:26:05;9.73;;;7.20;;
32236;SDS011;18726;44.732;10.550;2023-06-19T14:29:09;7.32;;;6.82;;
32236;SDS011;18726;44.732;10.550;2023-06-19T14:32:13;10.88;;;7.38;;
32236;SDS011;18726;44.732;10.550;2023-06-19T14:35:17;8.07;;;7.43;;
32236;SDS011;18726;44.732;10.550;2023-06-19T14:38:21;8.18;;;7.38;;
32236;SDS011;18726;44.732;10.550;2023-06-19T14:41:25;12.07;;;6.57;;
32236;SDS011;18726;44.732;10.550;2023-06-19T14:44:28;9.82;;;7.43;;
32236;SDS011;18726;44.732;10.550;2023-06-19T14:47:31;10.95;;;8.02;;
32236;SDS011;18726;44.732;10.550;2023-06-19T14:50:36;8.05;;;7.22;;
32236;SDS011;18726;44.732;10.550;2023-06-19T14:53:41;8.45;;;7.15;;
32236;SDS011;18726;44.732;10.550;2023-06-19T14:56:44;7.93;;;6.80;;
32236;SDS011;18726;44.732;10.550;2023-06-19T14:59:51;10.10;;;8.13;;
32236;SDS011;18726;44.732;10.550;2023-06-19T15:02:55;8.68;;;7.22;;
32236;SDS011;18726;44.732;10.550;2023-06-19T15:05:58;10.57;;;8.00;;
32236;SDS011;18726;44.732;10.550;2023-06-19T15:09:02;13.02;;;7.78;;
32236;SDS011;18726;44.732;10.550;2023-06-19T15:12:06;8.10;;;7.30;;
32236;SDS011;18726;44.732;10.550;2023-06-19T15:15:10;9.27;;;8.05;;
32236;SDS011;18726;44.732;10.550;2023-06-19T15:18:14;7.85;;;7.15;;
32236;SDS011;18726;44.732;10.550;2023-06-19T15:21:18;8.13;;;7.43;;
32236;SDS011;18726;44.732;10.550;2023-06-19T15:24:22;9.50;;;7.18;;
32236;SDS011;18726;44.732;10.550;2023-06-19T15:27:25;13.07;;;8.13;;
32236;SDS011;18726;44.732;10.550;2023-06-19T15:30:28;7.60;;;6.85;;
32236;SDS011;18726;44.732;10.550;2023-06-19T15:33:32;8.50;;;7.70;;
32236;SDS011;18726;44.732;10.550;2023-06-19T15:36:36;9.13;;;8.25;;
32236;SDS011;18726;44.732;10.550;2023-06-19T15:39:41;8.50;;;7.70;;
32236;SDS011;18726;44.732;10.550;2023-06-19T15:42:46;8.55;;;7.75;;
32236;SDS011;18726;44.732;10.550;2023-06-19T15:45:49;8.18;;;7.25;;
32236;SDS011;18726;44.732;10.550;2023-06-19T15:48:53;9.00;;;7.57;;
32236;SDS011;18726;44.732;10.550;2023-06-19T15:51:56;14.00;;;7.93;;
32236;SDS011;18726;44.732;10.550;2023-06-19T15:55:00;14.23;;;7.93;;
32236;SDS011;18726;44.732;10.550;2023-06-19T15:58:04;8.02;;;7.22;;
32236;SDS011;18726;44.732;10.550;2023-06-19T16:01:08;9.20;;;7.45;;
32236;SDS011;18726;44.732;10.550;2023-06-19T16:04:12;8.30;;;7.50;;
32236;SDS011;18726;44.732;10.550;2023-06-19T16:07:16;7.70;;;6.95;;
32236;SDS011;18726;44.732;10.550;2023-06-19T16:10:19;11.43;;;7.43;;
32236;SDS011;18726;44.732;10.550;2023-06-19T16:13:23;8.02;;;7.25;;
32236;SDS011;18726;44.732;10.550;2023-06-19T16:16:27;8.70;;;7.53;;
32236;SDS011;18726;44.732;10.550;2023-06-19T16:19:30;8.43;;;7.55;;
32236;SDS011;18726;44.732;10.550;2023-06-19T16:22:35;8.57;;;7.82;;
32236;SDS011;18726;44.732;10.550;2023-06-19T16:25:38;9.90;;;7.18;;
32236;SDS011;18726;44.732;10.550;2023-06-19T16:28:42;9.25;;;7.65;;
32236;SDS011;18726;44.732;10.550;2023-06-19T16:31:46;8.50;;;7.68;;
32236;SDS011;18726;44.732;10.550;2023-06-19T16:34:50;8.80;;;7.93;;
32236;SDS011;18726;44.732;10.550;2023-06-19T16:37:53;9.10;;;8.23;;
32236;SDS011;18726;44.732;10.550;2023-06-19T16:40:57;12.82;;;7.65;;
32236;SDS011;18726;44.732;10.550;2023-06-19T16:44:01;8.65;;;7.50;;
32236;SDS011;18726;44.732;10.550;2023-06-19T16:47:05;10.70;;;8.20;;
32236;SDS011;18726;44.732;10.550;2023-06-19T16:50:09;8.65;;;7.85;;
32236;SDS011;18726;44.732;10.550;2023-06-19T16:53:13;10.20;;;7.78;;
32236;SDS011;18726;44.732;10.550;2023-06-19T16:56:18;13.63;;;8.10;;
32236;SDS011;18726;44.732;10.550;2023-06-19T16:59:22;9.95;;;7.75;;
32236;SDS011;18726;44.732;10.550;2023-06-19T17:02:26;9.35;;;6.35;;
32236;SDS011;18726;44.732;10.550;2023-06-19T17:05:30;7.32;;;6.63;;
32236;SDS011;18726;44.732;10.550;2023-06-19T17:08:33;7.85;;;5.93;;
32236;SDS011;18726;44.732;10.550;2023-06-19T17:11:37;11.88;;;6.25;;
32236;SDS011;18726;44.732;10.550;2023-06-19T17:14:41;7.97;;;6.75;;
32236;SDS011;18726;44.732;10.550;2023-06-19T17:17:45;12.05;;;7.00;;
32236;SDS011;18726;44.732;10.550;2023-06-19T17:20:48;8.10;;;6.50;;
32236;SDS011;18726;44.732;10.550;2023-06-19T17:23:52;7.22;;;6.18;;
32236;SDS011;18726;44.732;10.550;2023-06-19T17:26:57;7.07;;;6.13;;
32236;SDS011;18726;44.732;10.550;2023-06-19T17:30:01;10.07;;;6.22;;
32236;SDS011;18726;44.732;10.550;2023-06-19T17:33:05;7.68;;;6.70;;
32236;SDS011;18726;44.732;10.550;2023-06-19T17:36:10;7.32;;;6.57;;
32236;SDS011;18726;44.732;10.550;2023-06-19T17:39:13;9.68;;;6.90;;
32236;SDS011;18726;44.732;10.550;2023-06-19T17:42:18;12.30;;;6.30;;
32236;SDS011;18726;44.732;10.550;2023-06-19T17:45:21;9.68;;;5.85;;
32236;SDS011;18726;44.732;10.550;2023-06-19T17:48:25;7.00;;;6.30;;
32236;SDS011;18726;44.732;10.550;2023-06-19T17:51:29;6.97;;;6.35;;
32236;SDS011;18726;44.732;10.550;2023-06-19T17:54:33;6.68;;;5.97;;
32236;SDS011;18726;44.732;10.550;2023-06-19T17:57:36;10.52;;;6.70;;
32236;SDS011;18726;44.732;10.550;2023-06-19T18:00:40;7.55;;;6.75;;
32236;SDS011;18726;44.732;10.550;2023-06-19T18:03:44;8.20;;;5.78;;